Terminal Aerodrome Forecast
Issued by NWS Louisville, KY

Home | Current Version | Previous Version | Text Only | Print | Product List | Glossary On
Versions: 1 2 3 4 5 6 7 8 9 10 11 12 13 14
117
FTUS43 KLMK 261311 AAA
TAFLEX
TAF AMD
KLEX 261311Z 2613/2712 30010KT P6SM BKN012
     FM261600 30010G17KT P6SM VCSH SCT020 BKN035
      TEMPO 2617/2620 5SM -SHRA BKN020
     FM262100 29010KT P6SM SCT090
     FM270000 28006KT P6SM SKC
     FM270600 VRB04KT P6SM SKC=

USA.gov is the U.S. government's official web portal to all federal, state and local government web resources and services.